Time;durP1;ratioP1;P1;durP2;ratioP2;P2;SDS_P1;SDS_P2;PMS_P1;PMS_P2;Temp;Humidity;BMP_temperature;BMP_pressure;BME280_temperature;BME280_humidity;BME280_pressure;Samples;Min_cycle;Max_cycle;Signal;HPM_P1;HPM_P2
2022/01/31 00:02:12;;;;;;;29.00;8.98;;;;;;;;;;5064773;28;20033;-60
2022/01/31 00:04:38;;;;;;;24.05;10.80;;;;;;;;;;5063334;28;20056;-60
2022/01/31 00:07:04;;;;;;;28.70;9.75;;;;;;;;;;5056668;28;20480;-61
2022/01/31 00:09:30;;;;;;;25.00;10.70;;;;;;;;;;5057917;28;20032;-60
2022/01/31 00:12:02;;;;;;;27.23;10.60;;;;;;;;;;5065727;28;20765;-61
2022/01/31 00:14:38;;;;;;;37.95;9.73;;;;;;;;;;5062373;28;21949;-60
2022/01/31 00:17:05;;;;;;;29.50;7.50;;;;;;;;;;5061871;28;20057;-60
2022/01/31 00:19:31;;;;;;;31.02;7.35;;;;;;;;;;5062907;28;20047;-60
2022/01/31 00:21:57;;;;;;;26.27;8.40;;;;;;;;;;5065563;28;20040;-60
2022/01/31 00:24:23;;;;;;;28.70;10.30;;;;;;;;;;5062341;28;20092;-60
2022/01/31 00:26:49;;;;;;;35.80;9.20;;;;;;;;;;5061521;28;20091;-61
2022/01/31 00:29:15;;;;;;;40.20;13.48;;;;;;;;;;5064672;28;20143;-61
2022/01/31 00:31:42;;;;;;;29.42;9.80;;;;;;;;;;5064455;28;20149;-60
2022/01/31 00:34:08;;;;;;;33.90;11.52;;;;;;;;;;5059102;28;20107;-61
2022/01/31 00:36:34;;;;;;;33.42;11.07;;;;;;;;;;5065051;28;20033;-61
2022/01/31 00:39:00;;;;;;;29.25;11.98;;;;;;;;;;5067756;28;20127;-61
2022/01/31 00:41:26;;;;;;;26.42;11.05;;;;;;;;;;5039439;28;20048;-61
2022/01/31 00:44:01;;;;;;;31.77;11.00;;;;;;;;;;5061190;28;20044;-61
2022/01/31 00:46:37;;;;;;;35.03;11.48;;;;;;;;;;5066261;28;20045;-60
2022/01/31 00:49:03;;;;;;;32.85;10.98;;;;;;;;;;5058472;28;20322;-61
2022/01/31 00:51:30;;;;;;;31.58;10.77;;;;;;;;;;5054339;28;20048;-60
2022/01/31 00:53:56;;;;;;;40.47;11.32;;;;;;;;;;5065901;28;20064;-60
2022/01/31 00:56:22;;;;;;;36.47;10.15;;;;;;;;;;5064525;28;20041;-61
2022/01/31 00:58:48;;;;;;;40.08;11.75;;;;;;;;;;5044245;28;20073;-61
2022/01/31 01:01:14;;;;;;;38.50;10.20;;;;;;;;;;5058534;28;20391;-60
2022/01/31 01:03:40;;;;;;;40.50;11.50;;;;;;;;;;5061237;28;20156;-60
2022/01/31 01:06:07;;;;;;;34.60;12.15;;;;;;;;;;5034042;28;20052;-60
2022/01/31 01:08:33;;;;;;;42.72;13.00;;;;;;;;;;5058516;28;20119;-60
2022/01/31 01:10:59;;;;;;;37.15;14.65;;;;;;;;;;5061184;28;20045;-60
2022/01/31 01:13:25;;;;;;;28.98;12.68;;;;;;;;;;5064869;28;20036;-60
2022/01/31 01:15:51;;;;;;;33.22;13.38;;;;;;;;;;5061194;28;20067;-60
2022/01/31 01:18:17;;;;;;;25.02;12.98;;;;;;;;;;5053289;28;20163;-60
2022/01/31 01:20:43;;;;;;;25.17;12.80;;;;;;;;;;5064779;28;20082;-60
2022/01/31 01:23:09;;;;;;;32.85;14.73;;;;;;;;;;5062828;28;20056;-60
2022/01/31 01:25:36;;;;;;;38.85;14.35;;;;;;;;;;5059956;28;20756;-60
2022/01/31 01:28:02;;;;;;;38.83;14.80;;;;;;;;;;5061687;28;20491;-60
2022/01/31 01:30:28;;;;;;;39.97;16.85;;;;;;;;;;5060132;28;20036;-60
2022/01/31 01:33:07;;;;;;;25.70;10.07;;;;;;;;;;5065028;28;20070;-60
2022/01/31 01:35:34;;;;;;;16.10;8.60;;;;;;;;;;5059323;28;20079;-60
2022/01/31 01:38:06;;;;;;;22.40;9.93;;;;;;;;;;5063526;28;20459;-60
2022/01/31 01:40:33;;;;;;;21.50;10.32;;;;;;;;;;5053573;28;20416;-60
2022/01/31 01:42:59;;;;;;;23.27;10.10;;;;;;;;;;5058821;28;20551;-60
2022/01/31 01:45:26;;;;;;;15.10;8.35;;;;;;;;;;5055437;28;20159;-60
2022/01/31 01:47:52;;;;;;;14.30;6.40;;;;;;;;;;5058192;28;20053;-60
2022/01/31 01:50:18;;;;;;;12.02;5.88;;;;;;;;;;5057404;28;20037;-60
2022/01/31 01:52:44;;;;;;;17.73;6.88;;;;;;;;;;5060746;28;20122;-60
2022/01/31 01:55:10;;;;;;;19.45;7.10;;;;;;;;;;5063924;28;20059;-60
2022/01/31 01:57:36;;;;;;;15.90;5.75;;;;;;;;;;5052978;28;20040;-60
2022/01/31 02:00:07;;;;;;;12.07;5.15;;;;;;;;;;5055088;28;20412;-60
2022/01/31 02:02:33;;;;;;;15.65;5.85;;;;;;;;;;5059631;28;20048;-60
2022/01/31 02:04:59;;;;;;;16.15;6.03;;;;;;;;;;5060229;28;20053;-60
2022/01/31 02:07:25;;;;;;;19.88;5.90;;;;;;;;;;5057860;28;20068;-60
2022/01/31 02:09:55;;;;;;;17.73;7.43;;;;;;;;;;5064977;28;20052;-59
2022/01/31 02:12:23;;;;;;;23.30;9.30;;;;;;;;;;5061511;28;20080;-60
2022/01/31 02:14:49;;;;;;;25.33;10.00;;;;;;;;;;5061725;28;20080;-60
2022/01/31 02:17:15;;;;;;;23.42;12.02;;;;;;;;;;5061576;28;20044;-60
2022/01/31 02:19:41;;;;;;;35.70;12.10;;;;;;;;;;5062840;28;20055;-60
2022/01/31 02:22:07;;;;;;;35.92;12.15;;;;;;;;;;5068798;28;20048;-60
2022/01/31 02:24:33;;;;;;;28.63;13.20;;;;;;;;;;5047931;28;20564;-60
2022/01/31 02:27:02;;;;;;;33.15;13.07;;;;;;;;;;5062362;28;20370;-60
2022/01/31 02:29:28;;;;;;;42.88;15.35;;;;;;;;;;5062759;28;20040;-60
2022/01/31 02:31:54;;;;;;;48.30;14.88;;;;;;;;;;5074188;28;20112;-60
2022/01/31 02:34:21;;;;;;;36.42;13.63;;;;;;;;;;5069248;28;20040;-60
2022/01/31 02:36:47;;;;;;;35.97;13.05;;;;;;;;;;5069184;28;20037;-60
2022/01/31 02:39:13;;;;;;;36.15;11.82;;;;;;;;;;5052793;28;20044;-60
2022/01/31 02:41:40;;;;;;;30.83;12.55;;;;;;;;;;5053520;28;20048;-60
2022/01/31 02:44:13;;;;;;;34.03;12.07;;;;;;;;;;5057077;28;20061;-60
2022/01/31 02:46:40;;;;;;;33.50;10.57;;;;;;;;;;5065180;28;20049;-60
2022/01/31 02:49:06;;;;;;;28.90;9.77;;;;;;;;;;5067611;28;20136;-60
2022/01/31 02:51:33;;;;;;;29.38;8.05;;;;;;;;;;5070062;28;20052;-60
2022/01/31 02:53:59;;;;;;;32.00;9.15;;;;;;;;;;5052865;28;20048;-60
2022/01/31 02:56:25;;;;;;;28.80;8.00;;;;;;;;;;5057710;28;20135;-60
2022/01/31 02:58:52;;;;;;;40.53;8.27;;;;;;;;;;5068600;28;20040;-60
2022/01/31 03:01:18;;;;;;;46.85;8.88;;;;;;;;;;5072717;28;20044;-60
2022/01/31 03:03:44;;;;;;;44.38;8.80;;;;;;;;;;5058763;28;20322;-60
2022/01/31 03:06:10;;;;;;;51.15;8.90;;;;;;;;;;5061117;28;20186;-60
2022/01/31 03:08:36;;;;;;;41.50;7.32;;;;;;;;;;5046140;28;20056;-60
2022/01/31 03:11:02;;;;;;;50.78;9.80;;;;;;;;;;5067191;28;20499;-61
2022/01/31 03:13:28;;;;;;;75.10;10.95;;;;;;;;;;5065829;28;20071;-60
2022/01/31 03:15:56;;;;;;;37.72;6.70;;;;;;;;;;5064285;28;21791;-60
2022/01/31 03:18:22;;;;;;;46.70;8.05;;;;;;;;;;5044288;28;20051;-60
2022/01/31 03:20:49;;;;;;;45.65;6.82;;;;;;;;;;5064963;28;20036;-60
2022/01/31 03:23:15;;;;;;;41.88;6.82;;;;;;;;;;5051901;28;20040;-61
2022/01/31 03:25:41;;;;;;;32.97;5.32;;;;;;;;;;5064913;28;20115;-60
2022/01/31 03:28:07;;;;;;;29.08;4.97;;;;;;;;;;5042103;28;20189;-60
2022/01/31 03:30:33;;;;;;;31.33;5.68;;;;;;;;;;5054734;28;20040;-60
2022/01/31 03:32:59;;;;;;;26.80;4.22;;;;;;;;;;5033229;28;20047;-60
2022/01/31 03:35:27;;;;;;;26.35;4.60;;;;;;;;;;5063611;28;20044;-60
2022/01/31 03:37:53;;;;;;;37.33;4.72;;;;;;;;;;5048080;28;20048;-60
2022/01/31 03:40:19;;;;;;;42.47;6.60;;;;;;;;;;5067204;28;20338;-61
2022/01/31 03:42:46;;;;;;;34.17;4.22;;;;;;;;;;5046124;28;20049;-60
2022/01/31 03:45:12;;;;;;;42.72;6.50;;;;;;;;;;5060459;28;20391;-60
2022/01/31 03:47:44;;;;;;;31.17;4.68;;;;;;;;;;5065314;28;20037;-60
2022/01/31 03:50:11;;;;;;;35.50;5.88;;;;;;;;;;5061041;28;20095;-60
2022/01/31 03:52:37;;;;;;;39.05;4.45;;;;;;;;;;5062083;28;20049;-60
2022/01/31 03:55:04;;;;;;;29.05;4.07;;;;;;;;;;5057155;28;20080;-60
2022/01/31 03:57:31;;;;;;;39.63;5.65;;;;;;;;;;5067236;28;20561;-60
2022/01/31 03:59:57;;;;;;;45.13;5.88;;;;;;;;;;5075465;28;20377;-60
2022/01/31 04:02:23;;;;;;;26.70;4.85;;;;;;;;;;5056655;28;20064;-60
2022/01/31 04:04:50;;;;;;;40.60;5.25;;;;;;;;;;5071496;28;20081;-60
2022/01/31 04:07:16;;;;;;;36.28;5.53;;;;;;;;;;5061604;28;20044;-60
2022/01/31 04:09:42;;;;;;;35.08;6.13;;;;;;;;;;5084301;28;20064;-60
2022/01/31 04:12:08;;;;;;;43.05;6.97;;;;;;;;;;5072636;28;20037;-60
2022/01/31 04:14:35;;;;;;;30.73;4.70;;;;;;;;;;5065686;28;20122;-60
2022/01/31 04:17:01;;;;;;;32.25;4.82;;;;;;;;;;5064947;28;20041;-60
2022/01/31 04:19:28;;;;;;;45.10;5.85;;;;;;;;;;5063045;28;20067;-60
2022/01/31 04:21:54;;;;;;;25.65;4.05;;;;;;;;;;5062419;28;20041;-60
2022/01/31 04:24:29;;;;;;;30.08;4.90;;;;;;;;;;5062538;28;20045;-61
2022/01/31 04:26:59;;;;;;;26.38;3.70;;;;;;;;;;5061467;28;20436;-60
2022/01/31 04:29:28;;;;;;;26.15;4.47;;;;;;;;;;5060723;28;20072;-60
2022/01/31 04:31:55;;;;;;;28.60;5.30;;;;;;;;;;5061829;28;20447;-60
2022/01/31 04:34:22;;;;;;;29.15;3.75;;;;;;;;;;5063304;28;20041;-60
2022/01/31 04:36:48;;;;;;;18.30;2.95;;;;;;;;;;5063446;28;20068;-60
2022/01/31 04:39:17;;;;;;;13.73;1.80;;;;;;;;;;5045018;28;20090;-60
2022/01/31 04:41:44;;;;;;;6.28;1.05;;;;;;;;;;5059641;28;20484;-61
2022/01/31 04:44:11;;;;;;;12.00;1.77;;;;;;;;;;5040809;28;20507;-60
2022/01/31 04:46:39;;;;;;;9.20;1.02;;;;;;;;;;5063020;28;20082;-60
2022/01/31 04:49:06;;;;;;;14.18;1.50;;;;;;;;;;5059379;28;20037;-60
2022/01/31 04:51:32;;;;;;;11.55;1.25;;;;;;;;;;5055336;28;20448;-60
2022/01/31 04:53:58;;;;;;;15.63;1.50;;;;;;;;;;5040577;28;20052;-60
2022/01/31 04:56:24;;;;;;;17.70;3.00;;;;;;;;;;5038593;28;20044;-60
2022/01/31 04:58:50;;;;;;;21.42;3.00;;;;;;;;;;5045092;28;20523;-60
2022/01/31 05:01:16;;;;;;;21.40;2.85;;;;;;;;;;5052996;28;20225;-60
2022/01/31 05:03:45;;;;;;;28.83;3.05;;;;;;;;;;5060957;28;20040;-60
2022/01/31 05:06:14;;;;;;;28.13;3.30;;;;;;;;;;5064223;28;20063;-60
2022/01/31 05:08:40;;;;;;;24.60;2.80;;;;;;;;;;5060659;28;20061;-60
2022/01/31 05:11:08;;;;;;;23.20;3.55;;;;;;;;;;5069804;28;20043;-60
2022/01/31 05:13:38;;;;;;;21.85;3.22;;;;;;;;;;5067601;28;20036;-60
2022/01/31 05:16:05;;;;;;;22.65;2.50;;;;;;;;;;5068168;28;20087;-60
2022/01/31 05:18:31;;;;;;;11.35;2.58;;;;;;;;;;5047053;28;20052;-61
2022/01/31 05:20:57;;;;;;;21.38;2.13;;;;;;;;;;5057793;28;20475;-60
2022/01/31 05:23:24;;;;;;;12.30;2.08;;;;;;;;;;5060245;28;20126;-60
2022/01/31 05:25:50;;;;;;;23.15;4.43;;;;;;;;;;5065406;28;20040;-60
2022/01/31 05:28:16;;;;;;;22.63;3.17;;;;;;;;;;5072880;28;20036;-60
2022/01/31 05:30:42;;;;;;;18.27;2.72;;;;;;;;;;5072664;28;20404;-61
2022/01/31 05:33:08;;;;;;;27.60;3.92;;;;;;;;;;5058642;28;20063;-60
2022/01/31 05:35:35;;;;;;;29.10;4.30;;;;;;;;;;5075742;28;20041;-60
2022/01/31 05:38:01;;;;;;;26.80;4.30;;;;;;;;;;5069129;28;20036;-61
2022/01/31 05:40:28;;;;;;;43.53;6.28;;;;;;;;;;5068783;28;20106;-60
2022/01/31 05:42:54;;;;;;;27.55;5.00;;;;;;;;;;5063875;28;20056;-60
2022/01/31 05:45:20;;;;;;;17.98;2.83;;;;;;;;;;5041034;28;20488;-60
2022/01/31 05:47:47;;;;;;;19.42;2.30;;;;;;;;;;5061569;28;20055;-60
2022/01/31 05:50:13;;;;;;;20.50;2.80;;;;;;;;;;5066901;28;20067;-60
2022/01/31 05:52:39;;;;;;;23.50;3.55;;;;;;;;;;5059236;28;20055;-60
2022/01/31 05:55:06;;;;;;;20.27;3.30;;;;;;;;;;5061441;28;20052;-61
2022/01/31 05:57:33;;;;;;;30.88;4.95;;;;;;;;;;5057659;28;20036;-60
2022/01/31 05:59:59;;;;;;;27.58;3.22;;;;;;;;;;5059468;28;20553;-60
2022/01/31 06:02:25;;;;;;;12.27;2.10;;;;;;;;;;5063987;28;20052;-61
2022/01/31 06:04:51;;;;;;;15.70;2.20;;;;;;;;;;5059607;28;20312;-61
2022/01/31 06:07:17;;;;;;;16.02;2.78;;;;;;;;;;5056333;28;20037;-60
2022/01/31 06:09:43;;;;;;;26.10;4.28;;;;;;;;;;5043470;28;20097;-61
2022/01/31 06:12:11;;;;;;;22.42;3.70;;;;;;;;;;5066910;28;20064;-60
2022/01/31 06:14:39;;;;;;;14.88;2.40;;;;;;;;;;5070378;28;20052;-61
2022/01/31 06:17:05;;;;;;;29.98;4.03;;;;;;;;;;5072977;28;20048;-61
2022/01/31 06:19:31;;;;;;;25.05;4.63;;;;;;;;;;5072279;28;20039;-62
2022/01/31 06:21:57;;;;;;;33.78;3.40;;;;;;;;;;5056324;28;20098;-61
2022/01/31 06:24:24;;;;;;;23.85;3.13;;;;;;;;;;5062538;28;20119;-61
2022/01/31 06:26:51;;;;;;;18.70;2.40;;;;;;;;;;5067910;28;20080;-60
2022/01/31 06:29:17;;;;;;;27.05;3.20;;;;;;;;;;5064930;28;20124;-61
2022/01/31 06:31:43;;;;;;;21.88;3.38;;;;;;;;;;5064045;28;20048;-61
2022/01/31 06:34:09;;;;;;;24.13;3.38;;;;;;;;;;5068709;28;20406;-61
2022/01/31 06:36:35;;;;;;;20.92;3.00;;;;;;;;;;5071957;28;20362;-61
2022/01/31 06:39:01;;;;;;;22.98;2.80;;;;;;;;;;5072735;28;20048;-62
2022/01/31 06:41:28;;;;;;;25.10;4.07;;;;;;;;;;5073337;28;20442;-62
2022/01/31 06:43:55;;;;;;;22.95;2.78;;;;;;;;;;5068104;28;20044;-62
2022/01/31 06:46:21;;;;;;;26.92;3.40;;;;;;;;;;5075158;28;20075;-61
2022/01/31 06:48:47;;;;;;;28.10;3.38;;;;;;;;;;5073448;28;20194;-58
2022/01/31 06:51:14;;;;;;;24.45;2.95;;;;;;;;;;5069894;28;20098;-59
2022/01/31 06:53:41;;;;;;;21.30;3.40;;;;;;;;;;5070270;28;20036;-59
2022/01/31 06:56:07;;;;;;;34.83;4.85;;;;;;;;;;5069087;28;20048;-59
2022/01/31 06:58:33;;;;;;;31.92;5.05;;;;;;;;;;5062338;28;20047;-59
2022/01/31 07:01:00;;;;;;;23.52;2.90;;;;;;;;;;5061253;28;20051;-59
2022/01/31 07:03:26;;;;;;;39.10;5.28;;;;;;;;;;5059897;28;20456;-59
2022/01/31 07:05:52;;;;;;;21.65;3.40;;;;;;;;;;5055461;28;20093;-59
2022/01/31 07:08:18;;;;;;;31.60;3.70;;;;;;;;;;5069385;28;20460;-59
2022/01/31 07:10:51;;;;;;;30.23;4.63;;;;;;;;;;5059846;28;20043;-59
2022/01/31 07:13:35;;;;;;;32.25;5.03;;;;;;;;;;5076113;28;20047;-59
2022/01/31 07:16:01;;;;;;;48.35;6.30;;;;;;;;;;5074413;28;20036;-59
2022/01/31 07:18:27;;;;;;;52.78;5.88;;;;;;;;;;5074151;28;20123;-59
2022/01/31 07:20:55;;;;;;;41.20;6.07;;;;;;;;;;5065101;28;20037;-59
2022/01/31 07:23:27;;;;;;;46.88;7.97;;;;;;;;;;5062426;28;20857;-59
2022/01/31 07:25:53;;;;;;;51.65;6.55;;;;;;;;;;5063873;28;20048;-59
2022/01/31 07:28:20;;;;;;;61.22;7.57;;;;;;;;;;5062566;28;20053;-59
2022/01/31 07:30:47;;;;;;;40.67;5.65;;;;;;;;;;5059647;28;20045;-65
2022/01/31 07:33:14;;;;;;;38.55;6.45;;;;;;;;;;5040706;28;20130;-59
2022/01/31 07:35:42;;;;;;;59.47;7.80;;;;;;;;;;5063380;28;20045;-72
2022/01/31 07:38:08;;;;;;;44.53;5.68;;;;;;;;;;5060387;28;20052;-59
2022/01/31 07:40:35;;;;;;;53.60;6.53;;;;;;;;;;5056881;28;20183;-59
2022/01/31 07:43:02;;;;;;;43.28;5.97;;;;;;;;;;5053512;28;20093;-60
2022/01/31 07:45:28;;;;;;;48.30;5.68;;;;;;;;;;5058211;28;20138;-60
2022/01/31 07:47:54;;;;;;;28.83;4.03;;;;;;;;;;5055682;28;20059;-59
2022/01/31 07:50:20;;;;;;;27.95;3.80;;;;;;;;;;5057797;28;20048;-60
2022/01/31 07:52:47;;;;;;;24.67;2.80;;;;;;;;;;5054747;28;20171;-60
2022/01/31 07:55:13;;;;;;;31.70;3.95;;;;;;;;;;5060567;28;20391;-60
2022/01/31 07:57:41;;;;;;;19.63;2.83;;;;;;;;;;5065953;28;20087;-59
2022/01/31 08:00:08;;;;;;;26.98;3.10;;;;;;;;;;5059045;28;20040;-59
2022/01/31 08:02:34;;;;;;;34.72;4.25;;;;;;;;;;5057342;28;20064;-59
2022/01/31 08:05:00;;;;;;;22.55;3.05;;;;;;;;;;5061694;28;20106;-60
2022/01/31 08:07:26;;;;;;;23.63;2.63;;;;;;;;;;5062732;28;20481;-59
2022/01/31 08:09:53;;;;;;;18.17;3.22;;;;;;;;;;5063236;28;20053;-60
2022/01/31 08:12:19;;;;;;;21.77;2.70;;;;;;;;;;5060234;28;20040;-61
2022/01/31 08:14:47;;;;;;;20.42;2.80;;;;;;;;;;5060730;28;20057;-65
2022/01/31 08:17:13;;;;;;;17.92;3.67;;;;;;;;;;5039959;28;20056;-60
2022/01/31 08:19:40;;;;;;;16.83;2.33;;;;;;;;;;5062684;28;20043;-60
2022/01/31 08:22:06;;;;;;;24.00;2.38;;;;;;;;;;5061707;28;20086;-61
2022/01/31 08:24:32;;;;;;;21.58;3.33;;;;;;;;;;5042682;28;20086;-61
2022/01/31 08:26:59;;;;;;;23.40;2.47;;;;;;;;;;5064619;28;20084;-61
2022/01/31 08:29:30;;;;;;;30.52;4.20;;;;;;;;;;5063624;28;20117;-61
2022/01/31 08:31:57;;;;;;;17.70;2.20;;;;;;;;;;5055192;28;20095;-61
2022/01/31 08:35:47;;;;;;;18.83;2.50;;;;;;;;;;5054468;28;20041;-60
2022/01/31 08:37:13;;;;;;;22.63;2.92;;;;;;;;;;5052975;28;20037;-60
2022/01/31 08:39:39;;;;;;;19.27;3.13;;;;;;;;;;5052949;28;20048;-60
2022/01/31 08:42:06;;;;;;;17.08;2.80;;;;;;;;;;5061157;28;20864;-60
2022/01/31 08:44:32;;;;;;;17.00;2.17;;;;;;;;;;5035161;28;20059;-60
2022/01/31 08:46:58;;;;;;;21.50;2.13;;;;;;;;;;5051735;28;20396;-60
2022/01/31 08:49:24;;;;;;;30.13;3.47;;;;;;;;;;5056745;28;20037;-60
2022/01/31 08:51:50;;;;;;;19.20;2.78;;;;;;;;;;5055066;28;20037;-60
2022/01/31 08:54:16;;;;;;;17.70;2.45;;;;;;;;;;5039671;28;20047;-59
2022/01/31 08:56:45;;;;;;;19.13;2.40;;;;;;;;;;5059427;28;20396;-59
2022/01/31 08:59:16;;;;;;;15.68;2.17;;;;;;;;;;5065286;28;20087;-59
2022/01/31 09:01:43;;;;;;;17.98;2.22;;;;;;;;;;5061600;28;20048;-59
2022/01/31 09:04:12;;;;;;;18.75;2.10;;;;;;;;;;5058014;28;20041;-59
2022/01/31 09:06:38;;;;;;;23.65;2.15;;;;;;;;;;5058430;28;20492;-59
2022/01/31 09:09:08;;;;;;;17.13;2.65;;;;;;;;;;5062927;28;20052;-59
2022/01/31 09:11:36;;;;;;;18.67;2.65;;;;;;;;;;5053989;28;20492;-59
2022/01/31 09:14:02;;;;;;;21.90;3.38;;;;;;;;;;5066550;28;20053;-60
2022/01/31 09:16:28;;;;;;;27.48;2.97;;;;;;;;;;5048016;28;20106;-59
2022/01/31 09:18:55;;;;;;;23.98;2.90;;;;;;;;;;5066666;28;20047;-59
2022/01/31 09:21:21;;;;;;;22.83;3.15;;;;;;;;;;5057291;28;20183;-60
2022/01/31 09:23:52;;;;;;;27.30;3.35;;;;;;;;;;5065031;28;20099;-59
2022/01/31 09:26:21;;;;;;;24.58;5.05;;;;;;;;;;5061658;28;20052;-60
2022/01/31 09:28:47;;;;;;;18.08;3.25;;;;;;;;;;5060626;28;20104;-68
2022/01/31 09:31:15;;;;;;;17.60;2.88;;;;;;;;;;5044488;28;20049;-73
2022/01/31 09:33:41;;;;;;;18.45;2.55;;;;;;;;;;5053133;28;20079;-74
2022/01/31 09:36:07;;;;;;;23.17;1.95;;;;;;;;;;5038203;28;20040;-60
2022/01/31 09:38:33;;;;;;;20.60;4.15;;;;;;;;;;5066259;28;20072;-60
2022/01/31 09:40:59;;;;;;;19.90;2.20;;;;;;;;;;5065175;28;20443;-60
2022/01/31 09:43:52;;;;;;;13.05;1.90;;;;;;;;;;5068950;28;20047;-60
2022/01/31 09:49:03;;;;;;;20.63;2.60;;;;;;;;;;5066973;28;20040;-59
2022/01/31 09:51:29;;;;;;;23.85;2.60;;;;;;;;;;5062988;28;20492;-60
2022/01/31 09:53:58;;;;;;;23.67;2.67;;;;;;;;;;5063497;28;20466;-75
2022/01/31 09:56:27;;;;;;;14.98;2.45;;;;;;;;;;5066944;28;20499;-60
2022/01/31 09:58:55;;;;;;;16.00;2.50;;;;;;;;;;5065778;28;20039;-59
2022/01/31 10:01:28;;;;;;;27.17;4.32;;;;;;;;;;5065501;28;20044;-59
2022/01/31 10:03:55;;;;;;;19.38;3.88;;;;;;;;;;5062831;28;20032;-60
2022/01/31 10:06:30;;;;;;;24.75;3.72;;;;;;;;;;5058285;28;20501;-60
2022/01/31 10:09:02;;;;;;;23.38;4.40;;;;;;;;;;5067608;28;20174;-60
2022/01/31 10:11:29;;;;;;;25.58;3.53;;;;;;;;;;5062998;28;20040;-60
2022/01/31 10:16:53;;;;;;;34.30;4.10;;;;;;;;;;5062119;28;20067;-60
2022/01/31 10:19:19;;;;;;;27.45;4.75;;;;;;;;;;5061118;28;20091;-60
2022/01/31 10:21:56;;;;;;;31.75;4.32;;;;;;;;;;5063723;28;20048;-60
2022/01/31 10:24:23;;;;;;;32.30;5.10;;;;;;;;;;5068437;28;20586;-60
2022/01/31 10:26:49;;;;;;;29.15;3.85;;;;;;;;;;5048209;28;20059;-60
2022/01/31 10:29:16;;;;;;;31.70;3.45;;;;;;;;;;5064557;28;20382;-60
2022/01/31 10:31:56;;;;;;;26.67;3.95;;;;;;;;;;5061809;28;20046;-60
2022/01/31 10:34:24;;;;;;;24.92;4.28;;;;;;;;;;5068324;28;20051;-61
2022/01/31 10:36:51;;;;;;;25.10;4.32;;;;;;;;;;5066072;28;20041;-60
2022/01/31 10:45:32;;;;;;;16.15;2.22;;;;;;;;;;5048175;28;20048;-59
2022/01/31 10:51:29;;;;;;;15.73;3.05;;;;;;;;;;5058785;28;20057;-60
2022/01/31 10:53:55;;;;;;;17.02;2.47;;;;;;;;;;5070433;28;20041;-60
2022/01/31 10:56:21;;;;;;;20.90;2.50;;;;;;;;;;5072061;28;20084;-60
2022/01/31 10:58:55;;;;;;;19.30;3.15;;;;;;;;;;5065888;28;20094;-60
2022/01/31 11:01:21;;;;;;;18.05;2.47;;;;;;;;;;5061641;28;20555;-60
2022/01/31 11:03:48;;;;;;;15.75;3.47;;;;;;;;;;5044818;28;20072;-60
2022/01/31 11:06:14;;;;;;;13.82;1.75;;;;;;;;;;5065741;28;20122;-60
2022/01/31 11:08:40;;;;;;;10.57;1.60;;;;;;;;;;5065226;28;20059;-60
2022/01/31 11:11:07;;;;;;;16.00;2.15;;;;;;;;;;5061002;28;20048;-59
2022/01/31 11:13:35;;;;;;;13.02;2.75;;;;;;;;;;5062070;28;20036;-59
2022/01/31 11:16:01;;;;;;;17.50;2.70;;;;;;;;;;5064594;28;20396;-60
2022/01/31 11:18:31;;;;;;;16.77;2.47;;;;;;;;;;5054757;28;20044;-59
2022/01/31 11:20:59;;;;;;;22.08;2.92;;;;;;;;;;5066954;28;20517;-60
2022/01/31 11:23:27;;;;;;;19.63;2.28;;;;;;;;;;5074806;28;20403;-60
2022/01/31 11:25:56;;;;;;;16.90;2.72;;;;;;;;;;5074873;28;20192;-59
2022/01/31 11:28:23;;;;;;;18.58;2.30;;;;;;;;;;5064124;28;20125;-60
2022/01/31 11:30:49;;;;;;;20.48;2.15;;;;;;;;;;5063128;28;20048;-60
2022/01/31 11:33:16;;;;;;;19.20;2.97;;;;;;;;;;5065081;28;20041;-60
2022/01/31 11:35:42;;;;;;;28.42;3.65;;;;;;;;;;5063259;28;20059;-60
2022/01/31 11:38:08;;;;;;;22.08;2.63;;;;;;;;;;5070172;28;20094;-59
2022/01/31 11:40:34;;;;;;;14.70;2.10;;;;;;;;;;5072483;28;20040;-60
2022/01/31 11:43:02;;;;;;;19.42;3.03;;;;;;;;;;5063187;28;20186;-60
2022/01/31 11:45:29;;;;;;;13.77;2.22;;;;;;;;;;5066448;28;20044;-60
2022/01/31 11:47:57;;;;;;;13.68;2.33;;;;;;;;;;5048693;28;20494;-60
2022/01/31 11:50:24;;;;;;;14.07;2.25;;;;;;;;;;5072453;28;20397;-60
2022/01/31 11:52:55;;;;;;;13.60;2.33;;;;;;;;;;5072567;28;20125;-60
2022/01/31 11:55:23;;;;;;;15.13;2.75;;;;;;;;;;5069291;28;20048;-61
2022/01/31 11:57:51;;;;;;;19.50;3.20;;;;;;;;;;5070677;28;20134;-67
2022/01/31 12:00:18;;;;;;;20.20;2.53;;;;;;;;;;5073395;28;20062;-60
2022/01/31 12:02:45;;;;;;;21.73;3.42;;;;;;;;;;5049038;28;20041;-60
2022/01/31 12:05:14;;;;;;;21.50;3.08;;;;;;;;;;5068215;28;20408;-62
2022/01/31 12:07:42;;;;;;;14.73;2.38;;;;;;;;;;5062148;28;20524;-63
2022/01/31 12:10:21;;;;;;;22.60;4.18;;;;;;;;;;5046342;28;20052;-61
2022/01/31 12:12:58;;;;;;;14.32;2.70;;;;;;;;;;5062964;28;20086;-61
2022/01/31 12:15:34;;;;;;;15.73;2.95;;;;;;;;;;5071163;28;20052;-61
2022/01/31 12:18:27;;;;;;;18.35;3.40;;;;;;;;;;5047390;28;20071;-62
2022/01/31 12:23:40;;;;;;;22.15;3.30;;;;;;;;;;5065635;28;20072;-61
2022/01/31 12:26:26;;;;;;;22.60;2.72;;;;;;;;;;5049628;28;20060;-61
2022/01/31 12:28:55;;;;;;;15.73;2.38;;;;;;;;;;5047538;28;20060;-60
2022/01/31 12:31:23;;;;;;;16.02;3.17;;;;;;;;;;5065392;28;20044;-59
2022/01/31 12:33:50;;;;;;;58.13;7.50;;;;;;;;;;5063120;28;20040;-60
2022/01/31 12:36:46;;;;;;;29.17;4.68;;;;;;;;;;5061268;28;20539;-59
2022/01/31 12:42:02;;;;;;;;;;;;;;;;;;5064102;28;20052;-60
2022/01/31 12:44:32;;;;;;;29.92;5.18;;;;;;;;;;5058838;28;19954;-60
2022/01/31 12:47:08;;;;;;;34.08;5.00;;;;;;;;;;5066580;28;20055;-60
2022/01/31 12:49:35;;;;;;;33.28;5.38;;;;;;;;;;5063647;28;20049;-60
2022/01/31 12:52:03;;;;;;;30.50;5.35;;;;;;;;;;5066530;28;20477;-60
2022/01/31 12:54:30;;;;;;;21.60;4.60;;;;;;;;;;5044761;28;20080;-59
2022/01/31 12:57:02;;;;;;;39.53;4.93;;;;;;;;;;5058811;28;20345;-59
2022/01/31 12:59:28;;;;;;;30.60;6.60;;;;;;;;;;5058041;28;20057;-60
2022/01/31 13:01:54;;;;;;;35.17;4.72;;;;;;;;;;5055264;28;20041;-59
2022/01/31 13:04:23;;;;;;;37.42;6.13;;;;;;;;;;5066886;28;20442;-59
2022/01/31 13:06:50;;;;;;;31.15;5.55;;;;;;;;;;5065752;28;20049;-60
2022/01/31 13:09:24;;;;;;;26.38;5.15;;;;;;;;;;5062497;28;20135;-60
2022/01/31 13:11:50;;;;;;;;;;;;;;;;;;5058583;28;20056;-59
2022/01/31 13:14:19;;;;;;;35.30;4.95;;;;;;;;;;5051598;28;19920;-59
2022/01/31 13:16:57;;;;;;;36.10;5.43;;;;;;;;;;5068872;28;20082;-59
2022/01/31 13:19:24;;;;;;;36.17;6.50;;;;;;;;;;5056583;28;20048;-60
2022/01/31 13:21:51;;;;;;;32.95;4.55;;;;;;;;;;5067267;28;20116;-60
2022/01/31 13:24:19;;;;;;;33.65;5.40;;;;;;;;;;5072436;28;20496;-60
2022/01/31 13:26:49;;;;;;;32.65;5.05;;;;;;;;;;5072511;28;20475;-60
2022/01/31 13:29:27;;;;;;;42.10;6.10;;;;;;;;;;5075551;28;20109;-60
2022/01/31 13:31:53;;;;;;;34.58;6.25;;;;;;;;;;5065032;28;20091;-60
2022/01/31 13:34:33;;;;;;;32.53;5.43;;;;;;;;;;5060306;28;20147;-60
2022/01/31 13:36:59;;;;;;;40.67;7.53;;;;;;;;;;5061769;28;20349;-60
2022/01/31 13:39:25;;;;;;;31.00;5.57;;;;;;;;;;5064253;28;20035;-60
2022/01/31 13:41:52;;;;;;;42.15;6.22;;;;;;;;;;5070630;28;20044;-60
2022/01/31 13:44:21;;;;;;;32.58;4.60;;;;;;;;;;5072079;28;20044;-60
2022/01/31 13:46:51;;;;;;;31.63;4.43;;;;;;;;;;5074527;28;20099;-60
2022/01/31 13:49:23;;;;;;;25.95;4.25;;;;;;;;;;5069632;28;20032;-62
2022/01/31 13:51:51;;;;;;;24.50;4.53;;;;;;;;;;5038021;28;20052;-61
2022/01/31 13:54:20;;;;;;;21.10;3.58;;;;;;;;;;5046350;28;20048;-62
2022/01/31 13:56:50;;;;;;;28.33;4.47;;;;;;;;;;5058847;28;20126;-61
2022/01/31 13:59:17;;;;;;;21.98;3.50;;;;;;;;;;5073953;28;20050;-61
2022/01/31 14:01:44;;;;;;;17.33;2.65;;;;;;;;;;5059590;28;20526;-61
2022/01/31 14:04:11;;;;;;;17.27;2.70;;;;;;;;;;5058559;28;20056;-61
2022/01/31 14:06:38;;;;;;;19.05;2.85;;;;;;;;;;5061000;28;20048;-61
2022/01/31 14:09:07;;;;;;;12.07;2.72;;;;;;;;;;5067068;28;20037;-60
2022/01/31 14:11:36;;;;;;;11.07;2.60;;;;;;;;;;5065703;28;20048;-60
2022/01/31 14:14:02;;;;;;;14.82;2.45;;;;;;;;;;5062346;28;20144;-60
2022/01/31 14:16:30;;;;;;;19.08;3.58;;;;;;;;;;5058228;28;20083;-61
2022/01/31 14:18:58;;;;;;;14.50;2.13;;;;;;;;;;5063425;28;20036;-61
2022/01/31 14:21:26;;;;;;;10.32;1.48;;;;;;;;;;5066583;28;20058;-60
2022/01/31 14:23:54;;;;;;;7.07;1.23;;;;;;;;;;5065463;28;20415;-60
2022/01/31 14:26:22;;;;;;;14.43;2.72;;;;;;;;;;5068724;28;20066;-60
2022/01/31 14:28:50;;;;;;;16.27;3.45;;;;;;;;;;5068618;28;20055;-60
2022/01/31 14:31:27;;;;;;;11.02;3.60;;;;;;;;;;5069264;28;20106;-60
2022/01/31 14:33:53;;;;;;;14.55;2.25;;;;;;;;;;5064240;28;20041;-61
2022/01/31 14:36:21;;;;;;;9.35;2.17;;;;;;;;;;5066146;28;20040;-61
2022/01/31 14:39:07;;;;;;;13.25;2.10;;;;;;;;;;5037590;28;20052;-60
2022/01/31 14:41:49;;;;;;;11.55;1.73;;;;;;;;;;5062274;28;20056;-60
2022/01/31 14:47:21;;;;;;;14.80;2.03;;;;;;;;;;5059736;28;20037;-61
2022/01/31 14:49:49;;;;;;;11.25;3.40;;;;;;;;;;5057823;28;20048;-60
2022/01/31 14:52:15;;;;;;;15.18;1.77;;;;;;;;;;5061455;28;20118;-60
2022/01/31 14:54:42;;;;;;;15.52;2.70;;;;;;;;;;5063705;28;20085;-59
2022/01/31 14:57:09;;;;;;;17.98;2.65;;;;;;;;;;5066438;28;20163;-60